Time;durP1;ratioP1;P1;durP2;ratioP2;P2;SDS_P1;SDS_P2;PMS_P1;PMS_P2;Temp;Humidity;BMP_temperature;BMP_pressure;BME280_temperature;BME280_humidity;BME280_pressure;Samples;Min_cycle;Max_cycle;Signal;HPM_P1;HPM_P2
2022/09/25 00:00:58;;;;;;;1.17;1.08;;;22.90;43.20;;;;;;5008611;28;20405;-60
2022/09/25 00:03:27;;;;;;;1.83;1.27;;;22.90;43.20;;;;;;5008806;28;20042;-60
2022/09/25 00:06:07;;;;;;;0.85;0.55;;;22.90;43.10;;;;;;5004688;28;20417;-60
2022/09/25 00:08:35;;;;;;;1.02;1.02;;;22.90;43.20;;;;;;5008840;28;20038;-60
2022/09/25 00:11:11;;;;;;;0.85;0.85;;;22.90;43.10;;;;;;5009070;28;20080;-60
2022/09/25 00:13:39;;;;;;;1.35;1.25;;;22.90;43.10;;;;;;5008690;28;20481;-60
2022/09/25 00:16:10;;;;;;;1.63;1.33;;;22.90;43.10;;;;;;5008475;28;20465;-60
2022/09/25 00:21:30;;;;;;;1.45;1.35;;;22.90;43.20;;;;;;5008596;28;20050;-60
2022/09/25 00:23:59;;;;;;;1.17;1.13;;;22.90;43.20;;;;;;5009013;28;20077;-60
2022/09/25 00:26:28;;;;;;;1.83;1.40;;;22.90;43.20;;;;;;5008306;28;20045;-60
2022/09/25 00:28:55;;;;;;;1.40;1.30;;;22.90;43.20;;;;;;5008674;28;20232;-60
2022/09/25 00:31:23;;;;;;;1.23;1.13;;;22.90;43.20;;;;;;5008452;28;20053;-60
2022/09/25 00:33:51;;;;;;;1.20;1.00;;;22.90;43.20;;;;;;5008608;28;20045;-60
2022/09/25 00:36:19;;;;;;;1.33;1.23;;;22.90;43.20;;;;;;5008472;28;20494;-59
2022/09/25 00:38:47;;;;;;;1.15;1.05;;;22.90;43.20;;;;;;5003492;28;20046;-60
2022/09/25 00:41:22;;;;;;;0.90;0.90;;;22.90;43.20;;;;;;5019943;28;20049;-60
2022/09/25 00:43:51;;;;;;;1.15;1.02;;;22.90;43.20;;;;;;5028565;28;20045;-60
2022/09/25 00:46:36;;;;;;;0.85;0.85;;;22.90;43.30;;;;;;5027842;28;20046;-59
2022/09/25 00:49:13;;;;;;;2.05;1.20;;;22.90;43.30;;;;;;5028146;28;20467;-60
2022/09/25 00:51:52;;;;;;;1.55;1.33;;;22.90;43.30;;;;;;5027566;28;20497;-60
2022/09/25 00:54:33;;;;;;;1.20;1.10;;;22.90;43.30;;;;;;5028384;28;20076;-60
2022/09/25 00:57:05;;;;;;;1.17;1.07;;;22.90;43.30;;;;;;5027402;28;20060;-59
2022/09/25 00:59:40;;;;;;;1.30;1.20;;;22.90;43.30;;;;;;5028747;28;20286;-60
2022/09/25 01:02:12;;;;;;;1.23;1.13;;;22.90;43.30;;;;;;5027774;28;20053;-59
2022/09/25 01:04:44;;;;;;;1.42;1.30;;;22.90;43.30;;;;;;5026814;28;20077;-60
2022/09/25 01:07:13;;;;;;;1.10;0.98;;;22.90;43.30;;;;;;5028520;28;20528;-60
2022/09/25 01:09:41;;;;;;;1.20;1.13;;;22.90;43.40;;;;;;5027540;28;20128;-60
2022/09/25 01:12:08;;;;;;;3.17;1.40;;;22.90;43.40;;;;;;5031863;28;20258;-60
2022/09/25 01:14:36;;;;;;;1.13;1.05;;;22.80;43.30;;;;;;5031750;28;20136;-60
2022/09/25 01:17:17;;;;;;;1.20;1.10;;;22.90;43.40;;;;;;5023949;28;20077;-60
2022/09/25 01:20:16;;;;;;;1.05;0.82;;;22.90;43.40;;;;;;5012050;28;20072;-60
2022/09/25 01:23:23;;;;;;;1.25;1.17;;;22.80;43.40;;;;;;5011954;28;20482;-60
2022/09/25 01:26:24;;;;;;;1.38;1.27;;;22.90;43.40;;;;;;5011873;28;20354;-60
2022/09/25 01:29:16;;;;;;;1.45;1.08;;;22.90;43.40;;;;;;5011082;28;20057;-60
2022/09/25 01:32:05;;;;;;;1.00;0.90;;;22.80;43.40;;;;;;5011998;28;20058;-60
2022/09/25 01:35:12;;;;;;;1.48;1.23;;;22.80;43.50;;;;;;5011229;28;20045;-59
2022/09/25 01:37:46;;;;;;;1.85;1.05;;;22.90;43.50;;;;;;5011176;28;20517;-60
2022/09/25 01:40:36;;;;;;;0.95;0.95;;;22.80;43.50;;;;;;5011793;28;20442;-59
2022/09/25 01:43:21;;;;;;;0.97;0.97;;;22.80;43.60;;;;;;5007082;28;20058;-60
2022/09/25 01:45:59;;;;;;;1.50;1.40;;;22.80;43.60;;;;;;5011654;28;20049;-59
2022/09/25 01:48:29;;;;;;;1.15;1.05;;;22.80;43.60;;;;;;5011381;28;20056;-59
2022/09/25 01:51:04;;;;;;;0.90;0.90;;;22.80;43.60;;;;;;5011117;28;20046;-60
2022/09/25 01:53:41;;;;;;;0.77;0.77;;;22.80;43.60;;;;;;5010511;28;20518;-60
2022/09/25 01:56:31;;;;;;;1.30;1.20;;;22.80;43.60;;;;;;5011609;28;20403;-60
2022/09/25 01:59:12;;;;;;;0.82;0.82;;;22.80;43.60;;;;;;5009900;28;20056;-60
2022/09/25 02:01:41;;;;;;;1.10;0.95;;;22.80;43.60;;;;;;5011178;28;20438;-60
2022/09/25 02:04:20;;;;;;;1.80;0.98;;;22.90;43.60;;;;;;5011345;28;20405;-60
2022/09/25 02:06:49;;;;;;;1.23;1.13;;;22.90;43.60;;;;;;5011679;28;20056;-60
2022/09/25 02:09:38;;;;;;;0.97;0.97;;;22.90;43.60;;;;;;5010738;28;20046;-59
2022/09/25 02:12:11;;;;;;;1.17;1.05;;;22.90;43.50;;;;;;5010848;28;20050;-60
2022/09/25 02:14:48;;;;;;;1.20;1.00;;;22.90;43.60;;;;;;5006415;28;20041;-60
2022/09/25 02:20:30;;;;;;;1.27;1.20;;;22.90;43.50;;;;;;5010781;28;20267;-60
2022/09/25 02:23:05;;;;;;;0.85;0.85;;;22.90;43.50;;;;;;5010562;28;20419;-60
2022/09/25 02:25:41;;;;;;;1.20;1.10;;;22.90;44.10;;;;;;5010819;28;20363;-60
2022/09/25 02:28:08;;;;;;;1.17;0.95;;;22.90;43.50;;;;;;5010587;28;20038;-60
2022/09/25 02:30:36;;;;;;;1.13;1.10;;;22.80;43.50;;;;;;5010944;28;20042;-60
2022/09/25 02:33:03;;;;;;;1.05;0.95;;;22.90;43.60;;;;;;5010525;28;20057;-60
2022/09/25 02:35:31;;;;;;;1.00;1.00;;;22.90;43.60;;;;;;5011144;28;20108;-62
2022/09/25 02:37:59;;;;;;;1.20;1.10;;;22.80;43.60;;;;;;5010411;28;20398;-60
2022/09/25 02:40:37;;;;;;;0.82;0.82;;;22.90;43.60;;;;;;5009905;28;20054;-60
2022/09/25 02:43:28;;;;;;;1.25;1.15;;;22.90;43.60;;;;;;5010285;28;20108;-60
2022/09/25 02:46:12;;;;;;;1.15;1.05;;;22.80;43.60;;;;;;5008818;28;20050;-60
2022/09/25 02:48:55;;;;;;;0.93;0.90;;;22.80;43.60;;;;;;5010258;28;20123;-60
2022/09/25 02:51:39;;;;;;;0.98;0.98;;;22.80;43.60;;;;;;5009698;28;20046;-59
2022/09/25 02:54:37;;;;;;;0.90;0.90;;;22.80;43.60;;;;;;5010372;28;20133;-60
2022/09/25 02:57:35;;;;;;;0.90;0.90;;;22.80;43.60;;;;;;5010123;28;20053;-60
2022/09/25 03:00:07;;;;;;;0.90;0.90;;;22.80;43.60;;;;;;5010136;28;20049;-59
2022/09/25 03:02:36;;;;;;;1.95;1.27;;;22.80;43.60;;;;;;5008503;28;20279;-59
2022/09/25 03:05:06;;;;;;;1.50;1.23;;;22.80;43.70;;;;;;5009891;28;20053;-59
2022/09/25 03:08:36;;;;;;;1.23;1.00;;;22.80;43.70;;;;;;5009805;28;20068;-59
2022/09/25 03:10:21;;;;;;;1.00;1.00;;;22.80;43.70;;;;;;5009739;28;20045;-59
2022/09/25 03:12:48;;;;;;;2.15;1.13;;;22.80;43.70;;;;;;5010175;28;20048;-59
2022/09/25 03:15:16;;;;;;;0.85;0.85;;;22.80;43.70;;;;;;5009611;28;20050;-59
2022/09/25 03:17:44;;;;;;;1.13;1.13;;;22.70;43.60;;;;;;5008576;28;20054;-59
2022/09/25 03:20:11;;;;;;;1.40;1.05;;;22.80;43.70;;;;;;5006514;28;20045;-59
2022/09/25 03:22:38;;;;;;;2.58;0.98;;;22.80;43.80;;;;;;5009479;28;20054;-60
2022/09/25 03:25:05;;;;;;;1.35;1.25;;;22.80;43.70;;;;;;5009827;28;20050;-59
2022/09/25 03:27:32;;;;;;;1.52;1.05;;;22.70;43.70;;;;;;5009292;28;20080;-59
2022/09/25 03:30:01;;;;;;;1.17;1.00;;;22.70;43.70;;;;;;5008528;28;20072;-59
2022/09/25 03:32:28;;;;;;;1.33;1.23;;;22.80;43.80;;;;;;5009833;28;20041;-59
2022/09/25 03:34:55;;;;;;;1.20;0.93;;;22.80;43.80;;;;;;5009537;28;20038;-59
2022/09/25 03:37:24;;;;;;;0.80;0.80;;;22.80;43.80;;;;;;5009574;28;20049;-59
2022/09/25 03:39:51;;;;;;;1.02;0.75;;;22.80;43.80;;;;;;5009564;28;20042;-59
2022/09/25 03:42:18;;;;;;;0.98;0.93;;;22.80;43.90;;;;;;5029097;28;20049;-59
2022/09/25 03:44:45;;;;;;;0.60;0.60;;;22.80;43.90;;;;;;5028964;28;20045;-60
2022/09/25 03:47:12;;;;;;;0.80;0.80;;;22.80;43.90;;;;;;5028833;28;20088;-59
2022/09/25 03:49:40;;;;;;;1.27;1.17;;;22.80;43.90;;;;;;5026943;28;20045;-59
2022/09/25 03:52:08;;;;;;;1.23;1.08;;;22.70;43.90;;;;;;5026080;28;20124;-59
2022/09/25 03:54:35;;;;;;;1.30;1.02;;;22.70;43.90;;;;;;5028839;28;20050;-59
2022/09/25 03:57:02;;;;;;;0.98;0.90;;;22.70;43.90;;;;;;5011715;28;20045;-59
2022/09/25 03:59:29;;;;;;;1.65;1.02;;;22.80;43.90;;;;;;5028957;28;20281;-59
2022/09/25 04:01:57;;;;;;;1.65;1.02;;;22.80;43.90;;;;;;5028565;28;20052;-59
2022/09/25 04:04:24;;;;;;;1.02;0.80;;;22.80;43.90;;;;;;5028344;28;20049;-59
2022/09/25 04:06:51;;;;;;;2.45;0.93;;;22.80;43.90;;;;;;5028368;28;20055;-59
2022/09/25 04:09:18;;;;;;;0.93;0.93;;;22.80;43.80;;;;;;5028862;28;20409;-59
2022/09/25 04:11:45;;;;;;;1.20;0.80;;;22.80;43.80;;;;;;5028064;28;20085;-59
2022/09/25 04:14:13;;;;;;;0.88;0.88;;;22.80;43.80;;;;;;5027451;28;20133;-59
2022/09/25 04:16:40;;;;;;;0.95;0.95;;;22.80;43.80;;;;;;5029046;28;20057;-59
2022/09/25 04:19:08;;;;;;;0.73;0.73;;;22.80;43.80;;;;;;5028464;28;20049;-59
2022/09/25 04:21:35;;;;;;;1.05;0.95;;;22.80;43.80;;;;;;5026647;28;20052;-59
2022/09/25 04:26:52;;;;;;;1.95;0.85;;;22.80;43.80;;;;;;5028774;28;20126;-60
2022/09/25 04:29:20;;;;;;;0.80;0.80;;;22.80;43.80;;;;;;5028483;28;20050;-59
2022/09/25 04:33:44;;;;;;;0.70;0.70;;;22.80;43.80;;;;;;5028341;28;20042;-59
2022/09/25 04:34:34;;;;;;;1.23;1.10;;;22.80;43.80;;;;;;5027958;28;20049;-59
2022/09/25 04:37:01;;;;;;;0.95;0.95;;;22.70;43.80;;;;;;5027774;28;20064;-59
2022/09/25 04:39:28;;;;;;;0.95;0.90;;;22.80;43.90;;;;;;5027974;28;20350;-59
2022/09/25 04:41:55;;;;;;;1.20;1.10;;;22.80;43.90;;;;;;5028473;28;20053;-59
2022/09/25 04:44:22;;;;;;;1.77;1.48;;;22.70;43.90;;;;;;5027800;28;20048;-60
2022/09/25 04:46:49;;;;;;;0.77;0.77;;;22.80;44.00;;;;;;5028176;28;20045;-59
2022/09/25 04:49:16;;;;;;;1.20;1.10;;;22.80;44.10;;;;;;5027605;28;20069;-59
2022/09/25 04:51:43;;;;;;;1.00;1.00;;;22.80;44.10;;;;;;5010132;28;20056;-59
2022/09/25 04:54:11;;;;;;;0.93;0.93;;;22.80;44.10;;;;;;5022857;28;20049;-59
2022/09/25 04:56:38;;;;;;;0.95;0.75;;;22.80;44.10;;;;;;5028060;28;20072;-59
2022/09/25 04:59:05;;;;;;;0.90;0.90;;;22.80;44.20;;;;;;4988861;28;20053;-59
2022/09/25 05:01:32;;;;;;;1.55;1.45;;;22.70;44.20;;;;;;4970925;28;20047;-59
2022/09/25 05:03:59;;;;;;;1.08;1.00;;;22.80;44.30;;;;;;5007165;28;20085;-59
2022/09/25 05:06:33;;;;;;;1.05;0.90;;;22.80;44.30;;;;;;5008267;28;20401;-59
2022/09/25 05:09:00;;;;;;;0.90;0.90;;;22.80;44.30;;;;;;5008155;28;20141;-59
2022/09/25 05:11:27;;;;;;;1.38;1.27;;;22.70;44.30;;;;;;5007783;28;20491;-59
2022/09/25 05:13:54;;;;;;;1.23;1.13;;;22.70;44.40;;;;;;5008121;28;20061;-59
2022/09/25 05:16:21;;;;;;;1.30;1.20;;;22.70;44.40;;;;;;5008465;28;20378;-59
2022/09/25 05:18:49;;;;;;;2.05;1.35;;;22.70;44.40;;;;;;5008314;28;20046;-59
2022/09/25 05:21:16;;;;;;;1.40;1.20;;;22.80;44.50;;;;;;5008181;28;20061;-59
2022/09/25 05:23:43;;;;;;;2.28;1.30;;;22.80;44.50;;;;;;5007664;28;20146;-59
2022/09/25 05:26:10;;;;;;;1.65;1.30;;;22.80;44.50;;;;;;5002609;28;20192;-59
2022/09/25 05:28:38;;;;;;;1.38;1.27;;;22.80;44.70;;;;;;5008076;28;20046;-59
2022/09/25 05:31:05;;;;;;;1.38;1.27;;;22.80;44.50;;;;;;5008034;28;20054;-59
2022/09/25 05:33:34;;;;;;;3.72;1.38;;;22.80;44.50;;;;;;5007915;28;20045;-59
2022/09/25 05:36:03;;;;;;;2.78;1.50;;;22.80;44.50;;;;;;5008006;28;20061;-60
2022/09/25 05:38:34;;;;;;;1.52;1.30;;;22.80;44.60;;;;;;5007964;28;20544;-59
2022/09/25 05:41:07;;;;;;;1.15;0.93;;;22.80;44.60;;;;;;5008182;28;20466;-59
2022/09/25 05:43:39;;;;;;;1.65;1.38;;;22.80;44.60;;;;;;5007675;28;20049;-59
2022/09/25 05:46:06;;;;;;;1.40;1.30;;;22.80;44.60;;;;;;5008205;28;20438;-59
2022/09/25 05:48:33;;;;;;;1.63;1.33;;;22.80;44.60;;;;;;5007644;28;20053;-59
2022/09/25 05:51:00;;;;;;;1.50;1.40;;;22.80;44.60;;;;;;5007366;28;20050;-59
2022/09/25 05:53:29;;;;;;;1.98;1.35;;;22.80;44.50;;;;;;5008890;28;20045;-59
2022/09/25 05:55:59;;;;;;;1.23;1.13;;;22.90;44.60;;;;;;5010990;28;20100;-59
2022/09/25 05:58:28;;;;;;;1.50;1.40;;;22.90;44.50;;;;;;5006885;28;20042;-59
2022/09/25 06:00:58;;;;;;;1.60;1.45;;;22.90;44.50;;;;;;5011499;28;20050;-59
2022/09/25 06:03:28;;;;;;;3.33;1.55;;;22.90;44.50;;;;;;5010901;28;20082;-59
2022/09/25 06:05:57;;;;;;;1.58;1.48;;;22.90;44.50;;;;;;5010911;28;20057;-59
2022/09/25 06:08:25;;;;;;;2.50;1.60;;;22.90;44.40;;;;;;5011305;28;20053;-59
2022/09/25 06:10:57;;;;;;;1.92;1.60;;;22.90;44.40;;;;;;5011159;28;20540;-59
2022/09/25 06:13:24;;;;;;;2.42;1.30;;;22.90;44.30;;;;;;5010672;28;20105;-59
2022/09/25 06:15:52;;;;;;;1.60;1.50;;;22.90;44.30;;;;;;5010436;28;20162;-59
2022/09/25 06:18:21;;;;;;;1.65;1.40;;;23.00;44.30;;;;;;5011054;28;20125;-59
2022/09/25 06:20:49;;;;;;;1.77;1.23;;;23.00;44.30;;;;;;5011057;28;20061;-59
2022/09/25 06:23:16;;;;;;;1.63;1.52;;;23.00;44.20;;;;;;5010771;28;20048;-59
2022/09/25 06:25:44;;;;;;;1.30;1.20;;;23.00;44.20;;;;;;5010986;28;20411;-59
2022/09/25 06:28:11;;;;;;;1.73;1.52;;;23.00;44.10;;;;;;5010666;28;20058;-59
2022/09/25 06:30:38;;;;;;;1.35;1.25;;;23.10;44.00;;;;;;5004750;28;20046;-59
2022/09/25 06:33:11;;;;;;;1.50;1.40;;;23.10;43.90;;;;;;5002492;28;20080;-59
2022/09/25 06:35:44;;;;;;;1.35;1.25;;;23.10;43.90;;;;;;5010868;28;20078;-59
2022/09/25 06:38:12;;;;;;;1.30;1.20;;;23.10;43.80;;;;;;5009879;28;20049;-59
2022/09/25 06:40:39;;;;;;;1.83;1.60;;;23.10;43.80;;;;;;5009279;28;20041;-59
2022/09/25 06:43:13;;;;;;;1.30;1.20;;;23.20;43.80;;;;;;5010489;28;20064;-59
2022/09/25 06:45:41;;;;;;;1.30;1.20;;;23.20;43.70;;;;;;5030579;28;20038;-59
2022/09/25 06:48:11;;;;;;;2.85;1.40;;;23.20;43.60;;;;;;5030375;28;20058;-59
2022/09/25 06:50:46;;;;;;;1.40;1.30;;;23.20;43.60;;;;;;5028440;28;20056;-59
2022/09/25 06:53:15;;;;;;;1.65;1.55;;;23.20;43.60;;;;;;5002513;28;20525;-59
2022/09/25 06:55:45;;;;;;;1.50;1.40;;;23.20;43.60;;;;;;5009511;28;20061;-59
2022/09/25 06:58:14;;;;;;;;;;;23.20;43.50;;;;;;5010664;28;20056;-60
2022/09/25 07:00:44;;;;;;;1.88;1.30;;;23.20;43.50;;;;;;5024397;28;19921;-59
2022/09/25 07:06:00;;;;;;;1.40;1.30;;;23.20;43.40;;;;;;4988746;28;20479;-59
2022/09/25 07:08:27;;;;;;;1.15;1.15;;;23.30;43.50;;;;;;4990164;28;20514;-59
2022/09/25 07:10:56;;;;;;;1.30;1.20;;;23.30;43.40;;;;;;4990703;28;20046;-59
2022/09/25 07:13:26;;;;;;;1.30;1.15;;;23.30;43.30;;;;;;4989717;28;20069;-59
2022/09/25 07:15:56;;;;;;;1.30;1.20;;;23.30;43.30;;;;;;4990356;28;20060;-59
2022/09/25 07:18:24;;;;;;;1.38;1.27;;;23.30;43.20;;;;;;4989213;28;20395;-59
2022/09/25 07:20:52;;;;;;;1.88;1.52;;;23.40;43.20;;;;;;4973312;28;20490;-59
2022/09/25 07:23:21;;;;;;;1.02;1.02;;;23.40;43.10;;;;;;4990280;28;20466;-60
2022/09/25 07:25:49;;;;;;;3.08;1.20;;;23.40;43.00;;;;;;4989453;28;20420;-59
2022/09/25 07:28:18;;;;;;;1.08;1.08;;;23.40;42.90;;;;;;4989918;28;20056;-59
2022/09/25 07:30:47;;;;;;;1.13;1.13;;;23.40;42.80;;;;;;4972981;28;20415;-59
2022/09/25 07:33:15;;;;;;;1.60;1.50;;;23.40;42.70;;;;;;4989496;28;20050;-59
2022/09/25 07:35:42;;;;;;;1.63;1.23;;;23.50;42.70;;;;;;4985077;28;20057;-59
2022/09/25 07:38:09;;;;;;;1.70;1.27;;;23.50;42.60;;;;;;4972512;28;20077;-59
2022/09/25 07:40:36;;;;;;;2.45;1.50;;;23.50;42.60;;;;;;4990171;28;20050;-59
2022/09/25 07:43:04;;;;;;;1.35;1.25;;;23.50;42.50;;;;;;4990029;28;20050;-60
2022/09/25 07:45:31;;;;;;;2.40;1.40;;;23.50;42.50;;;;;;4972285;28;20053;-59
2022/09/25 07:48:00;;;;;;;4.38;1.67;;;23.50;42.40;;;;;;4972746;28;20046;-59
2022/09/25 07:50:28;;;;;;;1.27;1.17;;;23.60;42.40;;;;;;4989606;28;20057;-59
2022/09/25 07:52:56;;;;;;;1.42;1.33;;;23.60;42.30;;;;;;4997242;28;20042;-59
2022/09/25 07:55:23;;;;;;;1.02;1.02;;;23.60;42.30;;;;;;5008276;28;20050;-59
2022/09/25 07:57:50;;;;;;;2.03;1.77;;;23.60;42.20;;;;;;5008911;28;20044;-59
2022/09/25 08:00:18;;;;;;;2.22;1.38;;;23.60;42.20;;;;;;5009404;28;20401;-59
2022/09/25 08:02:54;;;;;;;1.83;1.40;;;23.70;42.20;;;;;;5009306;28;20050;-59
2022/09/25 08:05:21;;;;;;;1.40;1.20;;;23.60;42.20;;;;;;5008027;28;20046;-59
2022/09/25 08:07:49;;;;;;;1.58;1.48;;;23.70;42.20;;;;;;5004591;28;20354;-59
2022/09/25 08:10:16;;;;;;;1.50;1.40;;;23.70;42.20;;;;;;5009232;28;20061;-59
2022/09/25 08:12:43;;;;;;;2.58;1.55;;;23.70;42.20;;;;;;5008547;28;20053;-59
2022/09/25 08:15:13;;;;;;;2.33;2.13;;;23.70;42.10;;;;;;5008769;28;20207;-59
2022/09/25 08:17:41;;;;;;;2.00;1.50;;;23.70;42.10;;;;;;5008710;28;20180;-59
2022/09/25 08:20:09;;;;;;;2.70;1.90;;;23.70;42.10;;;;;;5008173;28;20054;-59
2022/09/25 08:22:36;;;;;;;2.67;2.10;;;23.70;42.00;;;;;;5008823;28;20061;-59
2022/09/25 08:25:03;;;;;;;2.42;1.77;;;23.70;42.50;;;;;;5008483;28;20056;-59
2022/09/25 08:27:30;;;;;;;2.42;2.03;;;23.80;42.00;;;;;;5001041;28;20050;-59
2022/09/25 08:29:58;;;;;;;3.00;2.10;;;23.80;42.00;;;;;;4989067;28;20403;-59
2022/09/25 08:32:25;;;;;;;2.38;2.17;;;23.70;41.90;;;;;;4989337;28;20046;-59
2022/09/25 08:34:53;;;;;;;2.00;1.77;;;23.80;41.90;;;;;;4988788;28;20499;-59
2022/09/25 08:37:20;;;;;;;2.33;2.03;;;23.70;41.90;;;;;;4988814;28;20042;-59
2022/09/25 08:39:47;;;;;;;3.15;2.20;;;23.70;41.90;;;;;;4983724;28;20443;-59
2022/09/25 08:42:28;;;;;;;2.13;1.92;;;23.80;41.90;;;;;;4988844;28;20049;-59
2022/09/25 08:50:40;;;;;;;2.15;1.83;;;23.80;41.90;;;;;;4988768;28;20053;-59
2022/09/25 08:53:18;;;;;;;2.53;2.30;;;23.80;41.80;;;;;;4988725;28;20375;-59
2022/09/25 08:58:41;;;;;;;1.90;1.75;;;23.80;41.70;;;;;;4988873;28;20057;-59
2022/09/25 09:01:16;;;;;;;2.05;1.50;;;23.90;41.70;;;;;;4988915;28;20469;-59
2022/09/25 09:03:53;;;;;;;2.95;2.30;;;23.90;41.70;;;;;;4988330;28;20511;-59
2022/09/25 09:06:22;;;;;;;2.38;1.80;;;23.90;41.60;;;;;;4970920;28;20471;-59
2022/09/25 09:09:14;;;;;;;2.50;2.03;;;23.90;41.50;;;;;;4988880;28;20132;-59
2022/09/25 09:12:06;;;;;;;2.63;1.95;;;24.00;41.50;;;;;;4986838;28;20288;-60
2022/09/25 09:14:40;;;;;;;2.67;2.45;;;24.00;41.50;;;;;;4988152;28;20072;-59
2022/09/25 09:17:17;;;;;;;1.77;1.60;;;24.00;41.40;;;;;;4988859;28;20057;-59
2022/09/25 09:19:54;;;;;;;4.10;1.85;;;24.00;41.30;;;;;;4988645;28;20495;-59
2022/09/25 09:22:30;;;;;;;2.80;2.00;;;24.10;41.40;;;;;;4988893;28;20053;-59
2022/09/25 09:25:31;;;;;;;3.45;1.90;;;24.10;41.30;;;;;;4987937;28;20050;-59
2022/09/25 09:28:28;;;;;;;2.88;1.95;;;24.10;41.30;;;;;;4986926;28;20484;-59
2022/09/25 09:31:12;;;;;;;2.42;1.77;;;24.10;41.30;;;;;;4992324;28;20054;-59
2022/09/25 09:34:16;;;;;;;3.75;1.80;;;24.10;41.30;;;;;;4991830;28;20050;-59
2022/09/25 09:37:02;;;;;;;2.30;1.90;;;24.10;41.20;;;;;;4991829;28;20072;-59
2022/09/25 09:39:49;;;;;;;2.10;1.80;;;24.10;41.20;;;;;;4991943;28;20053;-59
2022/09/25 09:42:50;;;;;;;3.60;2.20;;;24.10;41.70;;;;;;4992123;28;20084;-59
2022/09/25 09:45:31;;;;;;;3.08;2.22;;;24.20;41.20;;;;;;4972634;28;20056;-59
2022/09/25 09:48:35;;;;;;;2.95;2.10;;;24.10;41.20;;;;;;4992143;28;20050;-59
2022/09/25 09:51:26;;;;;;;1.90;1.52;;;24.10;41.20;;;;;;4977048;28;20051;-59
2022/09/25 09:54:01;;;;;;;2.30;1.98;;;24.10;41.30;;;;;;4991891;28;20046;-59
2022/09/25 09:56:31;;;;;;;2.40;1.95;;;24.10;41.30;;;;;;4991522;28;20053;-59
2022/09/25 09:59:08;;;;;;;2.22;1.67;;;24.10;41.30;;;;;;4991718;28;20061;-59
2022/09/25 10:01:38;;;;;;;2.22;1.88;;;24.10;41.30;;;;;;4991748;28;20054;-59
2022/09/25 10:04:23;;;;;;;2.00;1.80;;;24.10;41.30;;;;;;4991639;28;20490;-59
2022/09/25 10:06:57;;;;;;;2.05;1.80;;;24.10;41.40;;;;;;4991574;28;20271;-59
2022/09/25 10:09:25;;;;;;;2.53;1.60;;;24.10;41.40;;;;;;4998893;28;20509;-59
2022/09/25 10:12:06;;;;;;;2.28;1.88;;;24.10;41.40;;;;;;5030916;28;20049;-59
2022/09/25 10:14:40;;;;;;;1.90;1.60;;;24.10;41.40;;;;;;5023411;28;20054;-59
2022/09/25 10:17:10;;;;;;;1.98;1.80;;;24.10;41.50;;;;;;5028508;28;20050;-59
2022/09/25 10:19:49;;;;;;;;;;;24.10;41.50;;;;;;5028044;28;20049;-59
2022/09/25 10:22:21;;;;;;;2.35;1.80;;;24.10;41.40;;;;;;5030797;28;19921;-59
2022/09/25 10:25:01;;;;;;;1.80;1.70;;;24.10;41.50;;;;;;5030761;28;20492;-59
2022/09/25 10:27:30;;;;;;;;;;;24.10;41.40;;;;;;5030904;28;20478;-59
2022/09/25 10:30:17;;;;;;;1.90;1.80;;;24.20;41.50;;;;;;5030614;28;19921;-59
2022/09/25 10:33:01;;;;;;;3.35;1.70;;;24.20;41.50;;;;;;5030141;28;20080;-59
2022/09/25 10:35:42;;;;;;;2.90;1.95;;;24.20;41.40;;;;;;5029587;28;20104;-59
2022/09/25 10:38:35;;;;;;;2.15;1.77;;;24.20;41.30;;;;;;5030127;28;20046;-59
2022/09/25 10:41:11;;;;;;;1.52;1.42;;;24.30;41.40;;;;;;5030164;28;20045;-59
2022/09/25 10:43:54;;;;;;;1.98;1.52;;;24.30;41.30;;;;;;5030515;28;20045;-59
2022/09/25 10:52:18;;;;;;;1.90;1.80;;;24.40;41.20;;;;;;5026908;28;20041;-59
2022/09/25 10:54:45;;;;;;;1.85;1.70;;;24.40;41.20;;;;;;5029550;28;20048;-59
2022/09/25 10:57:36;;;;;;;2.13;1.67;;;24.40;41.10;;;;;;5029485;28;20061;-59
2022/09/25 11:00:18;;;;;;;2.38;1.77;;;24.40;41.10;;;;;;5012488;28;20061;-59
2022/09/25 11:02:46;;;;;;;1.60;1.50;;;24.50;41.20;;;;;;5029394;28;20059;-59
2022/09/25 11:05:17;;;;;;;2.05;1.77;;;24.50;41.10;;;;;;5028865;28;20691;-59
2022/09/25 11:07:53;;;;;;;1.58;1.48;;;24.50;41.10;;;;;;5029983;28;20045;-59
2022/09/25 11:10:25;;;;;;;2.38;1.63;;;24.50;41.00;;;;;;5029716;28;20556;-59
2022/09/25 11:12:56;;;;;;;2.08;1.90;;;24.60;41.10;;;;;;5029351;28;20053;-59
2022/09/25 11:15:26;;;;;;;1.85;1.67;;;24.60;41.10;;;;;;5029579;28;20469;-59
2022/09/25 11:17:58;;;;;;;1.88;1.52;;;24.60;41.00;;;;;;5029493;28;20125;-59
2022/09/25 11:20:29;;;;;;;2.10;1.63;;;24.60;41.00;;;;;;5029497;28;20502;-59
2022/09/25 11:23:20;;;;;;;2.00;1.83;;;24.60;41.00;;;;;;5024493;28;20045;-59
2022/09/25 11:26:04;;;;;;;2.33;1.70;;;24.60;41.00;;;;;;5028142;28;20053;-59
2022/09/25 11:28:56;;;;;;;2.65;1.90;;;24.70;41.00;;;;;;5028681;28;20524;-59
2022/09/25 11:31:41;;;;;;;3.10;1.80;;;24.70;41.00;;;;;;5028039;28;20045;-59
2022/09/25 11:34:43;;;;;;;2.83;1.60;;;24.70;40.90;;;;;;5029101;28;20056;-59
2022/09/25 11:37:29;;;;;;;2.38;1.50;;;24.70;40.90;;;;;;5029287;28;20041;-59
2022/09/25 11:43:15;;;;;;;2.00;1.50;;;24.70;40.90;;;;;;5028247;28;20177;-59
2022/09/25 11:45:54;;;;;;;2.00;1.80;;;24.70;40.90;;;;;;5028733;28;20251;-59
2022/09/25 11:48:37;;;;;;;3.15;1.58;;;24.70;40.90;;;;;;5029005;28;20050;-59
2022/09/25 11:51:40;;;;;;;2.70;2.10;;;24.70;41.00;;;;;;5028315;28;20060;-59
2022/09/25 11:54:39;;;;;;;1.98;1.75;;;24.70;41.00;;;;;;5010358;28;20351;-59
2022/09/25 11:57:23;;;;;;;1.63;1.52;;;24.70;41.00;;;;;;5027832;28;20434;-59
2022/09/25 12:00:24;;;;;;;2.97;2.00;;;24.80;41.00;;;;;;5028290;28;20198;-59
2022/09/25 12:03:21;;;;;;;3.83;1.98;;;24.80;41.00;;;;;;5029165;28;20049;-59
2022/09/25 12:06:18;;;;;;;1.80;1.42;;;24.80;40.90;;;;;;5028633;28;20048;-59
2022/09/25 12:09:21;;;;;;;1.67;1.58;;;24.80;40.90;;;;;;5028724;28;20048;-59
2022/09/25 12:12:28;;;;;;;2.40;1.92;;;24.90;40.90;;;;;;5028565;28;20457;-60
2022/09/25 12:15:34;;;;;;;1.60;1.50;;;24.90;40.90;;;;;;5014406;28;20053;-59
2022/09/25 12:18:23;;;;;;;1.80;1.70;;;24.90;41.00;;;;;;5027670;28;20042;-59
2022/09/25 12:21:14;;;;;;;1.73;1.40;;;24.90;41.00;;;;;;5028871;28;20057;-59
2022/09/25 12:24:00;;;;;;;2.25;1.70;;;24.90;41.00;;;;;;5027812;28;20480;-59
2022/09/25 12:26:52;;;;;;;1.50;1.40;;;24.90;41.00;;;;;;5026412;28;20045;-59
2022/09/25 12:29:56;;;;;;;1.77;1.65;;;24.90;41.10;;;;;;5027706;28;20049;-59
2022/09/25 12:32:52;;;;;;;1.80;1.50;;;24.90;41.10;;;;;;5028651;28;20064;-59
2022/09/25 12:35:44;;;;;;;2.03;1.70;;;24.90;41.20;;;;;;5027816;28;20049;-59
2022/09/25 12:38:36;;;;;;;2.45;1.40;;;24.90;41.20;;;;;;5028638;28;20470;-59
2022/09/25 12:41:32;;;;;;;2.40;1.80;;;24.80;41.10;;;;;;5027739;28;20046;-58
2022/09/25 12:44:23;;;;;;;2.60;1.48;;;24.80;41.20;;;;;;5028165;28;20413;-59
2022/09/25 12:47:00;;;;;;;1.50;1.38;;;24.80;41.80;;;;;;5027799;28;20132;-59
2022/09/25 12:50:01;;;;;;;1.65;1.48;;;24.80;41.30;;;;;;5027904;28;20518;-59
2022/09/25 12:52:36;;;;;;;2.33;1.70;;;24.80;41.40;;;;;;5028206;28;20057;-58
2022/09/25 12:55:15;;;;;;;1.63;1.52;;;24.80;41.40;;;;;;5027848;28;20041;-59
2022/09/25 12:57:58;;;;;;;2.25;1.80;;;24.80;41.40;;;;;;5010300;28;20057;-59
2022/09/25 13:00:29;;;;;;;1.90;1.80;;;24.80;41.40;;;;;;5025016;28;20552;-59
2022/09/25 13:03:12;;;;;;;1.90;1.65;;;24.80;41.50;;;;;;5028182;28;20486;-59
2022/09/25 13:05:46;;;;;;;1.40;1.30;;;24.80;42.10;;;;;;5031518;28;20553;-59
2022/09/25 13:08:40;;;;;;;1.40;1.30;;;24.80;41.60;;;;;;5031891;28;20045;-59
2022/09/25 13:11:15;;;;;;;2.55;1.60;;;24.80;41.60;;;;;;5032268;28;20058;-59
2022/09/25 13:13:46;;;;;;;2.47;1.48;;;24.70;41.70;;;;;;5031913;28;20049;-59
2022/09/25 13:16:14;;;;;;;1.95;1.73;;;24.70;41.80;;;;;;5031869;28;20053;-59
2022/09/25 13:19:21;;;;;;;1.85;1.60;;;24.70;41.80;;;;;;5031750;28;20050;-59
2022/09/25 13:21:49;;;;;;;2.35;1.83;;;24.70;42.00;;;;;;5032062;28;20068;-59
2022/09/25 13:24:17;;;;;;;2.17;1.40;;;24.60;42.00;;;;;;5031445;28;20045;-58
2022/09/25 13:26:49;;;;;;;1.95;1.60;;;24.60;42.10;;;;;;5032165;28;20660;-59
2022/09/25 13:29:30;;;;;;;1.80;1.63;;;24.60;42.10;;;;;;5031078;28;20510;-59
2022/09/25 13:32:18;;;;;;;4.82;2.05;;;24.60;42.10;;;;;;5025489;28;20045;-58
2022/09/25 13:34:45;;;;;;;2.13;1.92;;;24.60;42.10;;;;;;5031511;28;20441;-59
2022/09/25 13:37:14;;;;;;;3.03;2.10;;;24.60;42.20;;;;;;5031551;28;20059;-59
2022/09/25 13:42:39;;;;;;;3.22;2.10;;;24.60;42.20;;;;;;5031606;28;20409;-58
2022/09/25 13:45:35;;;;;;;2.90;2.35;;;24.60;42.30;;;;;;5031516;28;20049;-58
2022/09/25 13:48:11;;;;;;;3.10;2.53;;;24.60;42.30;;;;;;5031164;28;20338;-58
2022/09/25 13:50:41;;;;;;;2.72;2.40;;;24.60;42.30;;;;;;5030417;28;20053;-59
2022/09/25 13:53:19;;;;;;;3.50;1.95;;;24.50;42.30;;;;;;5030328;28;20054;-59
2022/09/25 13:56:11;;;;;;;2.67;2.10;;;24.50;42.30;;;;;;5030480;28;20172;-59
2022/09/25 13:59:02;;;;;;;2.55;2.08;;;24.50;42.30;;;;;;5031364;28;20049;-59
2022/09/25 14:01:36;;;;;;;2.45;2.20;;;24.60;42.50;;;;;;5013682;28;20045;-59